Time;durP1;ratioP1;P1;durP2;ratioP2;P2;SDS_P1;SDS_P2;PMS_P1;PMS_P2;Temp;Humidity;BMP_temperature;BMP_pressure;BME280_temperature;BME280_humidity;BME280_pressure;Samples;Min_cycle;Max_cycle;Signal;HPM_P1;HPM_P2
2021/03/19 00:00:14;;;;;;;7.60;5.03;;;5.30;60.40;;;;;;5053094;28;20029;-73
2021/03/19 00:02:40;;;;;;;6.70;4.50;;;5.20;60.50;;;;;;5053042;28;20033;-73
2021/03/19 00:05:11;;;;;;;9.55;5.72;;;5.20;60.70;;;;;;5052992;28;20036;-74
2021/03/19 00:07:45;;;;;;;9.00;5.63;;;5.10;61.00;;;;;;5051756;28;20513;-74
2021/03/19 00:10:12;;;;;;;7.18;4.93;;;5.10;61.00;;;;;;5052430;28;20047;-74
2021/03/19 00:12:39;;;;;;;16.27;8.32;;;5.10;60.90;;;;;;5051637;28;20112;-73
2021/03/19 00:15:05;;;;;;;14.23;8.57;;;5.10;61.60;;;;;;5052982;28;20071;-73
2021/03/19 00:17:31;;;;;;;11.77;6.93;;;5.10;61.00;;;;;;5052783;28;20029;-73
2021/03/19 00:19:57;;;;;;;10.88;5.40;;;5.10;61.30;;;;;;5052861;28;20383;-73
2021/03/19 00:22:23;;;;;;;7.65;5.28;;;5.00;61.20;;;;;;5052820;28;20024;-73
2021/03/19 00:24:48;;;;;;;8.40;5.75;;;5.00;62.00;;;;;;5051551;28;20048;-73
2021/03/19 00:27:14;;;;;;;8.07;5.55;;;5.00;61.30;;;;;;5051400;28;20033;-73
2021/03/19 00:29:40;;;;;;;7.53;5.07;;;5.00;61.50;;;;;;5052758;28;20050;-72
2021/03/19 00:32:06;;;;;;;8.95;6.00;;;4.90;61.60;;;;;;5052605;28;20526;-72
2021/03/19 00:34:32;;;;;;;10.45;6.43;;;4.90;61.80;;;;;;5051505;28;20378;-73
2021/03/19 00:36:57;;;;;;;9.93;6.93;;;4.90;62.00;;;;;;5052689;28;20021;-73
2021/03/19 00:39:23;;;;;;;9.10;6.32;;;4.90;62.40;;;;;;5052570;28;20474;-73
2021/03/19 00:41:50;;;;;;;10.75;7.07;;;4.90;62.50;;;;;;5052615;28;20584;-73
2021/03/19 00:44:16;;;;;;;9.52;6.20;;;4.90;62.60;;;;;;5052625;28;20036;-73
2021/03/19 00:46:41;;;;;;;9.95;6.40;;;4.90;62.70;;;;;;5071723;28;20025;-72
2021/03/19 00:49:07;;;;;;;11.25;6.63;;;5.00;63.00;;;;;;5072400;28;20134;-74
2021/03/19 00:51:33;;;;;;;9.25;6.53;;;5.00;63.20;;;;;;5072601;28;20539;-74
2021/03/19 00:53:59;;;;;;;9.93;6.97;;;5.10;63.40;;;;;;5072667;28;20027;-73
2021/03/19 00:56:24;;;;;;;9.27;6.07;;;5.10;63.30;;;;;;5072580;28;20025;-73
2021/03/19 00:58:50;;;;;;;9.07;5.45;;;5.20;63.10;;;;;;5072410;28;20036;-74
2021/03/19 01:01:16;;;;;;;8.65;5.43;;;5.20;62.80;;;;;;5072551;28;20021;-73
2021/03/19 01:03:41;;;;;;;8.95;5.88;;;5.20;62.50;;;;;;5072377;28;20097;-73
2021/03/19 01:06:09;;;;;;;8.82;6.10;;;5.20;62.60;;;;;;5072475;28;20061;-73
2021/03/19 01:08:35;;;;;;;7.53;5.45;;;5.20;62.20;;;;;;5072370;28;20024;-73
2021/03/19 01:11:01;;;;;;;8.20;6.25;;;5.20;62.10;;;;;;5071029;28;20039;-73
2021/03/19 01:13:27;;;;;;;8.88;6.22;;;5.20;62.10;;;;;;5071077;28;20380;-73
2021/03/19 01:15:54;;;;;;;9.07;6.10;;;5.20;62.00;;;;;;5071116;28;20069;-73
2021/03/19 01:18:23;;;;;;;8.88;5.63;;;5.20;62.00;;;;;;5072450;28;20021;-73
2021/03/19 01:20:49;;;;;;;8.98;5.82;;;5.20;62.00;;;;;;5072307;28;20020;-73
2021/03/19 01:23:16;;;;;;;9.15;6.45;;;5.20;62.10;;;;;;5075863;28;20040;-73
2021/03/19 01:25:44;;;;;;;9.00;6.75;;;5.20;62.20;;;;;;5075858;28;20028;-74
2021/03/19 01:28:10;;;;;;;10.27;6.15;;;5.30;62.30;;;;;;5075917;28;20031;-72
2021/03/19 01:30:39;;;;;;;9.98;6.75;;;5.30;62.40;;;;;;5075843;28;20024;-73
2021/03/19 01:33:06;;;;;;;9.52;6.50;;;5.30;62.50;;;;;;5075714;28;20138;-74
2021/03/19 01:35:34;;;;;;;8.98;6.15;;;5.40;62.50;;;;;;5075750;28;20367;-73
2021/03/19 01:38:00;;;;;;;8.65;5.70;;;5.40;62.50;;;;;;5075671;28;20020;-73
2021/03/19 01:40:30;;;;;;;7.72;5.68;;;5.50;62.50;;;;;;5074390;28;20027;-73
2021/03/19 01:43:22;;;;;;;7.60;5.05;;;5.50;62.40;;;;;;5075665;28;20021;-74
2021/03/19 01:46:24;;;;;;;7.40;5.30;;;5.60;62.30;;;;;;5055613;28;20031;-74
2021/03/19 01:49:38;;;;;;;8.27;5.63;;;5.60;62.10;;;;;;5055556;28;20390;-73
2021/03/19 01:52:41;;;;;;;9.07;6.28;;;5.70;61.90;;;;;;5053347;28;20036;-73
2021/03/19 01:55:44;;;;;;;8.48;6.00;;;5.70;61.70;;;;;;5055448;28;20401;-73
2021/03/19 01:58:47;;;;;;;7.10;5.07;;;5.70;61.70;;;;;;5054031;28;20021;-72
2021/03/19 02:01:51;;;;;;;7.80;5.30;;;5.80;61.70;;;;;;5053986;28;20021;-74
2021/03/19 02:04:54;;;;;;;8.73;5.10;;;5.90;61.70;;;;;;5055241;28;20075;-74
2021/03/19 02:07:57;;;;;;;7.13;5.53;;;5.90;61.50;;;;;;5053922;28;20045;-73
2021/03/19 02:11:00;;;;;;;6.78;5.07;;;5.90;61.40;;;;;;5053811;28;20022;-72
2021/03/19 02:14:03;;;;;;;5.72;4.22;;;6.00;61.20;;;;;;5055013;28;20033;-74
2021/03/19 02:17:06;;;;;;;7.22;5.15;;;6.10;61.10;;;;;;5055003;28;20025;-74
2021/03/19 02:20:09;;;;;;;6.47;4.85;;;6.10;60.90;;;;;;5055006;28;20059;-72
2021/03/19 02:23:12;;;;;;;6.35;4.75;;;6.10;60.90;;;;;;5054954;28;20075;-72
2021/03/19 02:26:15;;;;;;;7.72;5.47;;;6.20;60.70;;;;;;5054888;28;20020;-74
2021/03/19 02:29:18;;;;;;;8.00;5.32;;;6.20;60.60;;;;;;5054840;28;20079;-74
2021/03/19 02:32:02;;;;;;;7.45;5.38;;;6.20;60.30;;;;;;5054736;28;20475;-73
2021/03/19 02:34:33;;;;;;;8.73;5.90;;;6.30;60.30;;;;;;5054086;28;20029;-72
2021/03/19 02:37:00;;;;;;;8.43;6.10;;;6.30;60.30;;;;;;5054731;28;20025;-73
2021/03/19 02:39:26;;;;;;;7.47;5.65;;;6.30;60.20;;;;;;5053349;28;20121;-73
2021/03/19 02:41:51;;;;;;;8.40;6.13;;;6.30;60.10;;;;;;5054492;28;20112;-72
2021/03/19 02:44:18;;;;;;;8.40;5.97;;;6.40;60.00;;;;;;5054561;28;20029;-72
2021/03/19 02:46:44;;;;;;;11.15;6.75;;;6.40;59.80;;;;;;5054544;28;20036;-73
2021/03/19 02:49:09;;;;;;;10.80;7.30;;;6.40;59.70;;;;;;5054211;28;20050;-74
2021/03/19 02:51:35;;;;;;;9.73;6.35;;;6.40;59.50;;;;;;5054413;28;20025;-74
2021/03/19 02:54:01;;;;;;;8.05;6.03;;;6.40;59.40;;;;;;5054368;28;20029;-73
2021/03/19 02:56:27;;;;;;;10.60;7.25;;;6.40;59.50;;;;;;5054244;28;20021;-74
2021/03/19 02:58:52;;;;;;;8.10;5.93;;;6.40;59.50;;;;;;5054271;28;20438;-73
2021/03/19 03:01:18;;;;;;;8.48;5.93;;;6.40;59.40;;;;;;5054291;28;20494;-73
2021/03/19 03:03:44;;;;;;;10.93;5.97;;;6.40;59.40;;;;;;5054184;28;20485;-74
2021/03/19 03:06:10;;;;;;;10.50;6.70;;;6.40;59.40;;;;;;5054210;28;20104;-74
2021/03/19 03:08:36;;;;;;;9.60;6.68;;;6.40;59.40;;;;;;5052862;28;20021;-73
2021/03/19 03:11:02;;;;;;;13.30;6.68;;;6.40;59.40;;;;;;5053953;28;20079;-73
2021/03/19 03:13:28;;;;;;;9.55;6.60;;;6.40;59.20;;;;;;5054012;28;20021;-73
2021/03/19 03:15:54;;;;;;;8.43;6.07;;;6.40;59.20;;;;;;5052730;28;20497;-73
2021/03/19 03:18:20;;;;;;;9.82;6.30;;;6.50;59.30;;;;;;5053879;28;20049;-73
2021/03/19 03:20:53;;;;;;;9.02;6.70;;;6.50;59.40;;;;;;5052806;28;20375;-74
2021/03/19 03:23:22;;;;;;;12.55;8.85;;;6.50;59.50;;;;;;5054092;28;20390;-74
2021/03/19 03:25:48;;;;;;;13.77;9.85;;;6.50;59.60;;;;;;5052646;28;20108;-74
2021/03/19 03:28:15;;;;;;;12.30;8.63;;;6.50;60.00;;;;;;5053879;28;20112;-73
2021/03/19 03:30:53;;;;;;;14.50;9.38;;;6.50;59.70;;;;;;5052586;28;20367;-74
2021/03/19 03:33:19;;;;;;;11.73;7.78;;;6.60;59.80;;;;;;5053713;28;20043;-73
2021/03/19 03:35:45;;;;;;;13.70;9.23;;;6.60;59.80;;;;;;5053714;28;20096;-73
2021/03/19 03:38:15;;;;;;;13.50;9.80;;;6.60;59.80;;;;;;5053556;28;20037;-74
2021/03/19 03:40:53;;;;;;;13.25;9.40;;;6.60;59.70;;;;;;5053779;28;20644;-73
2021/03/19 03:43:19;;;;;;;13.70;9.48;;;6.60;59.70;;;;;;5053609;28;20078;-72
2021/03/19 03:45:45;;;;;;;12.73;9.52;;;6.60;59.70;;;;;;5052593;28;20031;-74
2021/03/19 03:48:13;;;;;;;16.00;10.57;;;6.60;59.70;;;;;;5052202;28;20074;-74
2021/03/19 03:50:41;;;;;;;15.60;10.05;;;6.60;59.80;;;;;;5051930;28;20506;-72
2021/03/19 03:53:10;;;;;;;12.18;8.85;;;6.60;59.80;;;;;;5053306;28;20021;-74
2021/03/19 03:55:37;;;;;;;13.93;8.75;;;6.60;59.80;;;;;;5053391;28;20025;-74
2021/03/19 03:58:04;;;;;;;13.70;9.50;;;6.60;59.90;;;;;;5053143;28;20468;-73
2021/03/19 04:00:31;;;;;;;13.43;9.07;;;6.70;59.90;;;;;;5053201;28;20021;-73
2021/03/19 04:03:02;;;;;;;12.77;9.23;;;6.70;59.90;;;;;;5053132;28;20050;-71
2021/03/19 04:05:33;;;;;;;12.77;8.50;;;6.70;59.90;;;;;;5053212;28;20144;-71
2021/03/19 04:07:59;;;;;;;14.57;9.13;;;6.70;59.80;;;;;;5053056;28;20032;-72
2021/03/19 04:10:25;;;;;;;14.48;10.35;;;6.70;59.90;;;;;;5053016;28;20029;-72
2021/03/19 04:12:51;;;;;;;14.35;10.45;;;6.70;59.80;;;;;;5052827;28;20516;-73
2021/03/19 04:15:19;;;;;;;13.13;9.55;;;6.70;59.80;;;;;;5051796;28;20024;-73
2021/03/19 04:17:46;;;;;;;14.15;10.00;;;6.70;59.80;;;;;;5052934;28;20465;-72
2021/03/19 04:20:15;;;;;;;17.58;11.25;;;6.80;59.90;;;;;;5052924;28;20025;-73
2021/03/19 04:22:41;;;;;;;16.33;11.45;;;6.80;59.90;;;;;;5052652;28;20029;-73
2021/03/19 04:25:08;;;;;;;19.98;12.13;;;6.80;59.90;;;;;;5052894;28;20029;-73
2021/03/19 04:27:56;;;;;;;17.13;11.18;;;6.80;59.80;;;;;;5052710;28;20083;-72
2021/03/19 04:30:36;;;;;;;16.83;11.50;;;6.80;59.80;;;;;;5052879;28;20025;-72
2021/03/19 04:33:02;;;;;;;17.25;12.07;;;6.80;59.80;;;;;;5052794;28;20083;-73
2021/03/19 04:35:30;;;;;;;18.20;11.90;;;6.80;59.60;;;;;;5052761;28;20028;-73
2021/03/19 04:37:59;;;;;;;18.13;12.02;;;6.80;59.60;;;;;;5052727;28;20025;-72
2021/03/19 04:40:26;;;;;;;16.45;11.15;;;6.80;59.60;;;;;;5052495;28;20091;-71
2021/03/19 04:42:53;;;;;;;17.00;11.18;;;6.80;59.60;;;;;;5052671;28;20082;-73
2021/03/19 04:45:19;;;;;;;16.63;10.57;;;6.80;59.60;;;;;;5052663;28;20028;-73
2021/03/19 04:47:45;;;;;;;30.17;10.10;;;6.80;59.60;;;;;;5052654;28;20103;-73
2021/03/19 04:50:14;;;;;;;13.25;9.43;;;6.80;59.40;;;;;;5052507;28;20132;-72
2021/03/19 04:52:43;;;;;;;14.93;10.20;;;6.80;59.30;;;;;;5052473;28;20429;-73
2021/03/19 04:55:10;;;;;;;11.68;8.23;;;6.80;59.30;;;;;;5052538;28;20017;-72
2021/03/19 04:57:37;;;;;;;13.95;9.68;;;6.80;59.30;;;;;;5055079;28;20021;-72
2021/03/19 05:00:06;;;;;;;14.32;9.32;;;6.70;59.20;;;;;;5056433;28;20501;-72
2021/03/19 05:02:41;;;;;;;13.25;9.00;;;6.70;59.10;;;;;;5056307;28;20036;-71
2021/03/19 05:05:10;;;;;;;13.43;9.38;;;6.70;59.10;;;;;;5056347;28;20040;-72
2021/03/19 05:07:35;;;;;;;14.93;9.00;;;6.70;59.10;;;;;;5056315;28;20021;-72
2021/03/19 05:10:02;;;;;;;15.80;10.98;;;6.70;59.10;;;;;;5056239;28;20393;-73
2021/03/19 05:12:28;;;;;;;16.38;10.88;;;6.70;59.30;;;;;;5056185;28;20033;-71
2021/03/19 05:14:53;;;;;;;12.88;9.32;;;6.70;59.30;;;;;;5056274;28;20028;-71
2021/03/19 05:17:19;;;;;;;19.13;11.52;;;6.70;59.40;;;;;;5054899;28;20108;-72
2021/03/19 05:19:45;;;;;;;18.52;11.98;;;6.70;59.50;;;;;;5056088;28;20021;-72
2021/03/19 05:22:10;;;;;;;16.92;11.27;;;6.70;59.40;;;;;;5056095;28;20029;-74
2021/03/19 05:24:36;;;;;;;18.25;11.60;;;6.70;59.50;;;;;;5056007;28;20028;-71
2021/03/19 05:27:02;;;;;;;18.35;10.55;;;6.70;59.50;;;;;;5055953;28;20433;-72
2021/03/19 05:29:28;;;;;;;16.90;11.73;;;6.70;59.50;;;;;;5055891;28;20025;-72
2021/03/19 05:31:54;;;;;;;18.33;11.98;;;6.70;59.50;;;;;;5055628;28;20029;-73
2021/03/19 05:34:20;;;;;;;18.70;11.45;;;6.70;59.50;;;;;;5055800;28;20025;-72
2021/03/19 05:36:45;;;;;;;19.13;12.88;;;6.70;59.60;;;;;;5055812;28;20374;-71
2021/03/19 05:39:12;;;;;;;17.73;11.82;;;6.70;59.70;;;;;;5055596;28;20025;-72
2021/03/19 05:41:41;;;;;;;20.08;12.60;;;6.70;59.70;;;;;;5055705;28;20483;-72
2021/03/19 05:44:21;;;;;;;19.88;13.30;;;6.80;59.80;;;;;;5054345;28;20032;-72
2021/03/19 05:47:08;;;;;;;17.80;12.32;;;6.80;59.80;;;;;;5055521;28;20021;-73
2021/03/19 05:49:34;;;;;;;21.33;15.40;;;6.90;59.80;;;;;;5055249;28;20044;-73
2021/03/19 05:52:02;;;;;;;25.60;17.20;;;6.90;59.80;;;;;;5055456;28;20044;-73
2021/03/19 05:54:30;;;;;;;22.55;15.07;;;6.90;59.70;;;;;;5055430;28;20474;-72
2021/03/19 05:57:08;;;;;;;23.98;14.90;;;6.90;59.70;;;;;;5054006;28;20112;-73
2021/03/19 05:59:39;;;;;;;21.33;15.25;;;7.00;59.70;;;;;;5055359;28;20021;-72
2021/03/19 06:02:22;;;;;;;22.40;14.52;;;7.00;59.70;;;;;;5054049;28;20143;-73
2021/03/19 06:05:08;;;;;;;19.67;14.07;;;7.10;59.70;;;;;;5053930;28;20025;-74
2021/03/19 06:07:41;;;;;;;23.55;14.48;;;7.10;59.60;;;;;;5054585;28;20028;-72
2021/03/19 06:10:24;;;;;;;21.75;14.65;;;7.20;59.60;;;;;;5053427;28;20036;-72
2021/03/19 06:13:03;;;;;;;20.95;14.07;;;7.20;59.40;;;;;;5055130;28;20386;-73
2021/03/19 06:15:34;;;;;;;26.50;14.98;;;7.20;59.40;;;;;;5055026;28;20021;-72
2021/03/19 06:18:03;;;;;;;20.75;14.65;;;7.30;59.40;;;;;;5054855;28;20040;-72
2021/03/19 06:20:30;;;;;;;21.90;14.82;;;7.30;59.20;;;;;;5054885;28;20017;-73
2021/03/19 06:23:00;;;;;;;22.63;15.30;;;7.30;59.10;;;;;;5057233;28;20028;-72
2021/03/19 06:25:29;;;;;;;21.83;15.55;;;7.30;59.00;;;;;;5058434;28;20040;-71
2021/03/19 06:27:59;;;;;;;18.65;12.82;;;7.30;58.90;;;;;;5061010;28;20028;-71
2021/03/19 06:30:41;;;;;;;20.95;14.77;;;7.30;59.00;;;;;;5057960;28;20021;-73
2021/03/19 06:33:24;;;;;;;19.27;13.40;;;7.40;59.10;;;;;;5056787;28;20025;-73
2021/03/19 06:36:17;;;;;;;21.88;14.60;;;7.40;59.10;;;;;;5058587;28;20013;-72
2021/03/19 06:38:44;;;;;;;21.77;14.00;;;7.40;59.00;;;;;;5059850;28;20021;-73
2021/03/19 06:41:29;;;;;;;21.67;15.15;;;7.40;59.00;;;;;;5059513;28;20028;-71
2021/03/19 06:44:17;;;;;;;24.23;17.33;;;7.50;58.90;;;;;;5060188;28;20151;-71
2021/03/19 06:46:48;;;;;;;25.00;16.83;;;7.50;58.80;;;;;;5060579;28;20025;-71
2021/03/19 06:49:16;;;;;;;26.98;17.67;;;7.50;58.70;;;;;;5061500;28;20041;-72
2021/03/19 06:51:53;;;;;;;26.33;17.35;;;7.50;58.50;;;;;;5061860;28;20025;-72
2021/03/19 06:54:21;;;;;;;26.13;16.75;;;7.40;58.50;;;;;;5061426;28;20025;-71
2021/03/19 06:57:02;;;;;;;27.45;18.92;;;7.40;58.40;;;;;;5063657;28;20017;-71
2021/03/19 06:59:28;;;;;;;25.55;16.92;;;7.30;58.40;;;;;;5063699;28;20022;-72
2021/03/19 07:01:54;;;;;;;25.48;17.20;;;7.40;58.50;;;;;;5060328;28;20029;-71
2021/03/19 07:04:45;;;;;;;24.73;17.15;;;7.30;58.50;;;;;;5061461;28;20079;-71
2021/03/19 07:07:44;;;;;;;27.52;18.23;;;7.30;58.60;;;;;;5060837;28;20021;-72
2021/03/19 07:10:34;;;;;;;26.15;18.73;;;7.30;58.70;;;;;;5058741;28;20078;-72
2021/03/19 07:13:31;;;;;;;25.95;16.30;;;7.30;58.70;;;;;;5061274;28;20021;-72
2021/03/19 07:16:15;;;;;;;27.48;17.67;;;7.30;58.80;;;;;;5058117;28;20033;-72
2021/03/19 07:18:50;;;;;;;28.77;19.42;;;7.40;59.00;;;;;;5054660;28;20489;-74
2021/03/19 07:21:46;;;;;;;25.58;17.02;;;7.30;58.90;;;;;;5054055;28;20471;-72
2021/03/19 07:24:30;;;;;;;23.67;16.83;;;7.40;59.00;;;;;;5054413;28;20052;-72
2021/03/19 07:27:33;;;;;;;22.75;16.50;;;7.40;59.00;;;;;;5052675;28;20021;-72
2021/03/19 07:30:02;;;;;;;29.15;18.95;;;7.50;59.10;;;;;;5053672;28;20478;-71
2021/03/19 07:32:37;;;;;;;27.02;18.05;;;7.50;59.10;;;;;;5053684;28;20029;-72
2021/03/19 07:35:30;;;;;;;25.63;17.02;;;7.60;59.10;;;;;;5053545;28;20036;-71
2021/03/19 07:38:14;;;;;;;27.77;18.88;;;7.70;59.40;;;;;;5058485;28;20017;-74
2021/03/19 07:40:55;;;;;;;29.65;19.73;;;7.80;59.20;;;;;;5053563;28;20061;-74
2021/03/19 07:43:29;;;;;;;27.95;18.02;;;7.80;59.00;;;;;;5053539;28;20036;-71
2021/03/19 07:46:10;;;;;;;23.88;16.38;;;7.90;58.80;;;;;;5052277;28;20029;-74
2021/03/19 07:49:01;;;;;;;24.05;17.38;;;8.00;58.80;;;;;;5053484;28;20024;-73
2021/03/19 07:51:33;;;;;;;25.15;15.93;;;8.10;58.40;;;;;;5053271;28;20045;-74
2021/03/19 07:54:09;;;;;;;26.17;15.75;;;8.20;58.00;;;;;;5053408;28;20017;-73
2021/03/19 07:56:46;;;;;;;23.80;15.50;;;8.30;57.90;;;;;;5051987;28;20024;-73
2021/03/19 07:59:47;;;;;;;20.90;13.95;;;8.40;57.80;;;;;;5053499;28;20028;-73
2021/03/19 08:02:13;;;;;;;23.65;16.05;;;8.50;57.80;;;;;;5050920;28;20112;-74
2021/03/19 08:05:01;;;;;;;25.52;16.58;;;8.60;56.80;;;;;;5034189;28;20498;-73
2021/03/19 08:07:31;;;;;;;21.77;15.60;;;8.70;56.30;;;;;;5051093;28;20057;-73
2021/03/19 08:10:33;;;;;;;24.80;16.05;;;8.70;55.80;;;;;;5034099;28;20032;-74
2021/03/19 08:13:18;;;;;;;23.98;15.93;;;8.80;56.10;;;;;;4971983;28;20419;-73
2021/03/19 08:15:59;;;;;;;21.67;15.13;;;8.90;56.10;;;;;;4972057;28;20044;-73
2021/03/19 08:18:29;;;;;;;24.58;15.75;;;9.00;55.80;;;;;;4972081;28;20039;-73
2021/03/19 08:21:21;;;;;;;22.10;13.95;;;9.10;55.10;;;;;;4971870;28;20035;-74
2021/03/19 08:24:14;;;;;;;20.38;13.77;;;9.20;54.90;;;;;;4972089;28;20035;-73
2021/03/19 08:26:53;;;;;;;21.10;14.27;;;9.30;54.90;;;;;;4955663;28;20165;-73
2021/03/19 08:29:53;;;;;;;20.38;13.90;;;9.40;54.40;;;;;;4972046;28;20110;-74
2021/03/19 08:32:55;;;;;;;21.77;13.90;;;9.50;54.40;;;;;;4974191;28;20039;-74
2021/03/19 08:35:35;;;;;;;24.02;14.00;;;9.60;53.00;;;;;;4993471;28;20034;-75
2021/03/19 08:38:21;;;;;;;23.90;14.65;;;9.70;52.10;;;;;;4978947;28;20042;-74
2021/03/19 08:41:01;;;;;;;18.25;12.93;;;9.70;51.20;;;;;;4995358;28;20031;-73
2021/03/19 08:43:55;;;;;;;23.95;14.23;;;9.70;51.00;;;;;;4995288;28;20495;-74
2021/03/19 08:46:32;;;;;;;19.40;13.25;;;9.70;50.70;;;;;;4994717;28;20044;-73
2021/03/19 08:49:01;;;;;;;23.00;14.70;;;9.80;51.00;;;;;;5056553;28;20025;-73
2021/03/19 08:51:27;;;;;;;34.15;14.45;;;9.80;50.60;;;;;;5056756;28;20040;-73
2021/03/19 08:54:11;;;;;;;19.38;12.95;;;9.90;51.30;;;;;;5056652;28;20017;-74
2021/03/19 08:56:43;;;;;;;18.90;12.45;;;9.90;50.60;;;;;;5055250;28;20071;-73
2021/03/19 08:59:09;;;;;;;21.73;12.90;;;10.00;50.10;;;;;;5055324;28;20032;-74
2021/03/19 09:01:52;;;;;;;21.30;12.57;;;10.00;49.70;;;;;;5056508;28;20029;-73
2021/03/19 09:04:38;;;;;;;21.60;12.70;;;10.00;49.70;;;;;;5056476;28;20036;-74
2021/03/19 09:07:30;;;;;;;21.63;13.25;;;10.10;49.40;;;;;;5056211;28;20029;-73
2021/03/19 09:10:07;;;;;;;22.05;12.27;;;10.10;49.00;;;;;;5056362;28;20021;-73
2021/03/19 09:12:55;;;;;;;18.88;11.80;;;10.10;49.40;;;;;;5056180;28;20029;-73
2021/03/19 09:15:21;;;;;;;19.27;11.73;;;10.10;49.10;;;;;;5056129;28;20103;-72
2021/03/19 09:17:55;;;;;;;18.80;12.75;;;10.00;49.20;;;;;;5054938;28;20025;-73
2021/03/19 09:20:36;;;;;;;21.13;14.10;;;10.00;48.30;;;;;;5056189;28;20021;-75
2021/03/19 09:23:10;;;;;;;20.33;13.45;;;9.80;48.60;;;;;;5055945;28;20078;-73
2021/03/19 09:25:46;;;;;;;;;;;9.80;49.20;;;;;;5056498;28;20029;-74
2021/03/19 09:28:38;;;;;;;19.67;11.95;;;9.80;50.50;;;;;;5054700;28;19931;-74
2021/03/19 09:31:07;;;;;;;29.52;13.35;;;9.80;49.30;;;;;;5055955;28;20470;-74
2021/03/19 09:33:45;;;;;;;18.13;11.85;;;9.90;49.60;;;;;;5055669;28;20056;-74
2021/03/19 09:36:48;;;;;;;18.35;11.27;;;9.90;49.30;;;;;;5054576;28;20021;-73
2021/03/19 09:39:45;;;;;;;14.93;10.75;;;10.00;49.40;;;;;;5055831;28;20024;-73
2021/03/19 09:42:20;;;;;;;18.35;12.60;;;10.10;49.50;;;;;;5054299;28;20035;-74
2021/03/19 09:45:02;;;;;;;17.50;11.65;;;10.20;49.20;;;;;;5055639;28;20025;-72
2021/03/19 09:47:35;;;;;;;17.52;12.45;;;10.30;49.40;;;;;;5055613;28;20049;-74
2021/03/19 09:50:16;;;;;;;22.13;12.83;;;10.30;48.60;;;;;;5055277;28;20533;-73
2021/03/19 09:53:22;;;;;;;26.35;13.65;;;10.30;48.20;;;;;;5054160;28;20056;-74
2021/03/19 09:55:51;;;;;;;17.33;11.77;;;10.30;48.00;;;;;;5055559;28;20025;-74
2021/03/19 09:58:24;;;;;;;18.98;12.73;;;10.30;48.20;;;;;;5055208;28;20364;-74
2021/03/19 10:01:04;;;;;;;18.52;12.05;;;10.30;47.70;;;;;;5055613;28;20071;-75
2021/03/19 10:03:40;;;;;;;18.58;11.05;;;10.30;48.10;;;;;;5055281;28;20028;-74
2021/03/19 10:06:18;;;;;;;20.02;11.73;;;10.30;48.30;;;;;;5055295;28;20025;-75
2021/03/19 10:08:44;;;;;;;18.38;12.48;;;10.40;48.10;;;;;;5054056;28;20025;-74
2021/03/19 10:11:13;;;;;;;14.43;10.20;;;10.40;48.00;;;;;;5053741;28;20032;-74
2021/03/19 10:13:39;;;;;;;20.25;11.73;;;10.50;47.80;;;;;;5053673;28;20096;-71
2021/03/19 10:16:06;;;;;;;16.48;10.75;;;10.50;47.50;;;;;;5055179;28;20021;-72
2021/03/19 10:18:38;;;;;;;15.65;9.85;;;10.50;47.10;;;;;;5054997;28;20025;-73
2021/03/19 10:21:18;;;;;;;17.13;10.23;;;10.60;47.30;;;;;;5053636;28;20108;-73
2021/03/19 10:23:58;;;;;;;15.55;11.32;;;10.60;47.20;;;;;;5054888;28;20096;-74
2021/03/19 10:26:27;;;;;;;17.92;12.10;;;10.70;47.40;;;;;;5053732;28;20413;-74
2021/03/19 10:29:07;;;;;;;17.50;11.38;;;10.80;47.20;;;;;;5053590;28;20021;-72
2021/03/19 10:31:42;;;;;;;15.77;9.85;;;10.90;46.90;;;;;;5054682;28;20382;-72
2021/03/19 10:34:34;;;;;;;15.60;10.70;;;11.00;46.10;;;;;;5053354;28;20400;-72
2021/03/19 10:37:05;;;;;;;13.10;9.30;;;11.10;46.00;;;;;;5053538;28;20028;-74
2021/03/19 10:39:34;;;;;;;15.95;10.23;;;11.30;45.60;;;;;;5053357;28;20024;-73
2021/03/19 10:42:26;;;;;;;16.42;9.30;;;11.50;45.60;;;;;;5053328;28;20091;-73
2021/03/19 10:45:21;;;;;;;11.25;8.10;;;11.80;45.30;;;;;;5050231;28;20156;-75
2021/03/19 10:48:17;;;;;;;11.63;8.60;;;12.10;45.20;;;;;;5053655;28;20044;-73
2021/03/19 10:51:04;;;;;;;12.20;9.48;;;12.40;44.90;;;;;;5054226;28;20099;-74
2021/03/19 10:53:51;;;;;;;17.10;9.50;;;12.60;43.40;;;;;;5054243;28;20023;-73
2021/03/19 10:56:18;;;;;;;12.35;8.10;;;12.80;42.30;;;;;;5054033;28;20041;-74
2021/03/19 10:58:51;;;;;;;10.65;7.55;;;12.80;41.80;;;;;;5054078;28;20028;-74
2021/03/19 11:01:30;;;;;;;10.48;6.82;;;12.80;41.90;;;;;;5054063;28;20083;-73
2021/03/19 11:03:57;;;;;;;7.65;5.50;;;12.60;43.20;;;;;;5052931;28;20438;-73
2021/03/19 11:06:38;;;;;;;8.32;6.55;;;12.50;43.90;;;;;;5054076;28;20482;-74
2021/03/19 11:09:17;;;;;;;8.10;5.57;;;12.20;44.70;;;;;;5054021;28;20103;-73
2021/03/19 11:11:49;;;;;;;6.15;4.80;;;11.90;45.00;;;;;;5053991;28;20031;-74
2021/03/19 11:14:18;;;;;;;7.40;5.38;;;11.50;45.90;;;;;;5053965;28;20052;-72
2021/03/19 11:16:47;;;;;;;7.75;5.40;;;11.30;46.90;;;;;;5053946;28;20021;-72
2021/03/19 11:19:17;;;;;;;7.82;4.57;;;11.00;47.70;;;;;;5053660;28;20028;-75
2021/03/19 11:21:46;;;;;;;6.88;4.75;;;10.70;48.10;;;;;;5053722;28;20032;-74
2021/03/19 11:24:18;;;;;;;8.13;4.85;;;10.40;48.90;;;;;;5053647;28;20031;-73
2021/03/19 11:26:58;;;;;;;5.90;3.80;;;10.10;49.40;;;;;;5054028;28;20056;-74
2021/03/19 11:29:29;;;;;;;10.25;4.53;;;9.90;50.20;;;;;;5053454;28;20101;-75
2021/03/19 11:32:15;;;;;;;7.57;4.90;;;9.70;50.70;;;;;;5053458;28;20025;-73
2021/03/19 11:34:46;;;;;;;7.35;4.85;;;9.50;51.00;;;;;;5052278;28;20048;-74
2021/03/19 11:37:27;;;;;;;5.32;4.03;;;9.30;51.60;;;;;;5053365;28;20039;-74
2021/03/19 11:40:13;;;;;;;7.40;5.05;;;9.30;52.20;;;;;;5053432;28;20049;-73
2021/03/19 11:42:43;;;;;;;7.63;4.65;;;9.30;52.20;;;;;;5053251;28;20032;-74
2021/03/19 11:45:19;;;;;;;7.82;5.22;;;9.40;53.00;;;;;;5052010;28;20079;-74
2021/03/19 11:47:51;;;;;;;7.05;4.50;;;9.40;53.60;;;;;;5053419;28;20035;-74
2021/03/19 11:50:23;;;;;;;6.57;4.25;;;9.60;54.20;;;;;;5053033;28;20573;-74
2021/03/19 11:52:59;;;;;;;10.27;5.20;;;9.80;54.70;;;;;;5051881;28;20167;-75
2021/03/19 11:55:32;;;;;;;7.13;5.13;;;10.00;54.70;;;;;;5051416;28;20028;-75
2021/03/19 11:57:58;;;;;;;7.57;4.20;;;10.20;54.90;;;;;;5053031;28;20074;-74
2021/03/19 12:00:30;;;;;;;6.95;4.57;;;10.40;54.80;;;;;;5051861;28;20021;-73
2021/03/19 12:03:01;;;;;;;6.72;5.18;;;10.60;54.60;;;;;;5053013;28;20043;-74
2021/03/19 12:05:27;;;;;;;5.93;4.40;;;10.90;53.70;;;;;;5051491;28;20033;-74
2021/03/19 12:07:53;;;;;;;6.25;4.57;;;11.00;53.30;;;;;;5052634;28;20445;-73
2021/03/19 12:10:22;;;;;;;6.28;4.32;;;11.10;53.30;;;;;;5052959;28;20167;-73
2021/03/19 12:12:48;;;;;;;7.65;4.68;;;11.30;53.00;;;;;;5052900;28;20020;-73
2021/03/19 12:15:17;;;;;;;7.35;4.20;;;11.30;52.40;;;;;;5051656;28;20467;-74
2021/03/19 12:17:44;;;;;;;6.35;4.78;;;11.30;52.20;;;;;;5051621;28;20368;-75
2021/03/19 12:20:11;;;;;;;7.80;4.47;;;11.30;51.50;;;;;;5052655;28;20039;-73
2021/03/19 12:22:37;;;;;;;7.85;3.80;;;11.20;50.80;;;;;;5052773;28;20029;-75
2021/03/19 12:25:04;;;;;;;13.55;9.35;;;11.20;50.90;;;;;;5052878;28;20466;-74
2021/03/19 12:27:30;;;;;;;9.50;5.65;;;11.10;50.80;;;;;;5051497;28;20033;-74
2021/03/19 12:29:57;;;;;;;7.68;4.45;;;11.10;50.80;;;;;;5052619;28;20025;-74
2021/03/19 12:32:22;;;;;;;7.32;4.65;;;11.00;51.00;;;;;;5052614;28;20082;-74
2021/03/19 12:34:48;;;;;;;7.43;5.28;;;10.90;51.20;;;;;;5052418;28;20099;-74
2021/03/19 12:37:15;;;;;;;5.38;3.47;;;10.90;51.30;;;;;;5052533;28;20017;-74
2021/03/19 12:39:40;;;;;;;5.60;3.72;;;10.90;51.10;;;;;;5052486;28;20017;-74
2021/03/19 12:42:07;;;;;;;7.40;3.78;;;10.90;51.10;;;;;;5051289;28;20421;-75
2021/03/19 12:44:32;;;;;;;5.20;3.60;;;11.00;51.10;;;;;;5052751;28;20098;-73
2021/03/19 12:46:59;;;;;;;6.32;4.15;;;11.00;50.50;;;;;;5052509;28;20533;-74
2021/03/19 12:49:25;;;;;;;5.75;4.50;;;11.00;49.90;;;;;;5050910;28;20045;-73
2021/03/19 12:51:51;;;;;;;5.47;4.13;;;10.90;50.00;;;;;;5051206;28;20028;-74
2021/03/19 12:54:18;;;;;;;7.30;4.05;;;10.80;50.00;;;;;;5052574;28;20086;-73
2021/03/19 12:56:44;;;;;;;5.95;3.92;;;10.80;50.20;;;;;;5052316;28;20047;-74
2021/03/19 12:59:10;;;;;;;5.60;3.60;;;10.70;50.40;;;;;;5052489;28;20021;-73
2021/03/19 13:01:36;;;;;;;9.75;2.78;;;10.70;50.10;;;;;;5052345;28;20088;-73
2021/03/19 13:04:03;;;;;;;3.97;2.55;;;10.60;50.10;;;;;;5052274;28;20052;-73
2021/03/19 13:06:29;;;;;;;4.97;2.67;;;10.60;50.60;;;;;;5052328;28;20041;-73
2021/03/19 13:08:55;;;;;;;3.42;2.75;;;10.50;50.90;;;;;;5052366;28;20094;-73
2021/03/19 13:11:21;;;;;;;7.93;3.45;;;10.50;51.00;;;;;;5051098;28;20045;-74
2021/03/19 13:13:47;;;;;;;5.18;3.03;;;10.50;50.80;;;;;;5052300;28;20056;-74
2021/03/19 13:16:14;;;;;;;3.17;2.60;;;10.50;50.70;;;;;;5052144;28;20480;-74
2021/03/19 13:18:40;;;;;;;4.53;2.83;;;10.50;50.50;;;;;;5054925;28;20028;-73